Tiempo atmosférico en la estación meteorológica de Santibañez De Vidriales, Zamora (737 m.)



Fecha
DESCASC
Temp. máxima en grados centígrados (hora)
DESCASC
Temp. mínima en grados centígrados (hora)
DESCASC
Temp. media en grados centígrados
DESCASC
Racha de viento máxima en m/sg (hora)
DESCASC
Velocidad máxima media en intervalos de 10 minutos(hora)
DESCASC
Precipitaciones diarias en mm
DESCASC
Precipitaciones de 00:00 a 06:00 en mm
DESCASC
Precipitaciones de 06:00 a 12:00 en mm
DESCASC
Precipitaciones de 12:00 a 18:00 en mm
DESCASC
Precipitaciones de 18:00 a 24:00 en mm
DESCASC
23-06-2019 -- (--) -- (--) -- -- (--) -- (--) -- 0 0 0.2 --
22-06-2019 28.8 (16:30) 10.1 (06:20) 19.4 11.39 (16:30) 6.67 (17:00) 0 0 0 0 0
21-06-2019 24.1 (18:50) 7.4 (06:10) 15.8 8.33 (14:30) 4.44 (14:40) 0 0 0 0 0
20-06-2019 25 (17:40) 8.2 (00:00) 16.6 12.5 (19:40) 8.33 (19:50) 0.2 0 0 0 0.2
19-06-2019 -- (--) -- (--) -- -- (--) -- (--) -- -- -- -- 0
18-06-2019 -- (--) -- (--) -- -- (--) -- (--) -- 0 0 0 --
17-06-2019 27.2 (14:40) 8.2 (00:00) 17.7 11.39 (14:30) 7.78 (14:30) 0 0 0 0 0
16-06-2019 27.4 (17:40) 6.5 (00:00) 16.9 8.06 (18:40) 4.72 (18:10) 0 0 0 0 0
15-06-2019 22.9 (17:40) 2.6 (00:00) 12.7 8.61 (18:20) 4.72 (19:00) 0 0 0 0 0
14-06-2019 21.5 (15:00) 3.3 (00:00) 12.4 12.22 (15:50) 7.5 (17:30) 0 0 0 0 0
13-06-2019 21.2 (16:20) 4.2 (00:00) 12.7 10.28 (17:20) 6.39 (18:40) 0 0 0 0 0
12-06-2019 20.2 (17:40) 2.6 (00:00) 11.4 8.89 (14:40) 4.72 (01:30) 0 0 0 0 0
11-06-2019 18.4 (18:20) 8.2 (00:00) 13.3 11.11 (11:50) 6.67 (11:50) 0 0 0 0 0
10-06-2019 21.9 (16:40) 4.2 (00:00) 13 11.94 (21:50) 7.5 (21:50) 0 0 0 0 0
09-06-2019 21.9 (15:00) 5.6 (00:00) 13.7 9.44 (17:40) 5.83 (17:40) 6.8 0 0 1 5.8
08-06-2019 22 (17:30) 3 (00:00) 12.5 6.67 (13:50) 3.61 (18:50) 0 0 0 0 0
07-06-2019 17.2 (16:30) 5.4 (00:00) 11.3 11.67 (12:00) 6.11 (17:30) 0 0 0 0 0
06-06-2019 18.1 (15:10) 0.4 (00:00) 9.3 16.11 (16:30) 10.83 (16:30) 5 0 0 0 5
05-06-2019 17.8 (15:10) 4.9 (00:00) 11.3 12.78 (16:00) 7.78 (17:20) 0 0 0 0 0
04-06-2019 19.9 (13:40) 10 (00:00) 14.9 12.5 (09:50) 7.78 (13:20) 0 0 0 0 0
03-06-2019 27.6 (16:20) 11.6 (00:00) 19.6 13.33 (17:20) 8.61 (17:20) 0 0 0 0 0
02-06-2019 29.8 (15:50) 9.2 (00:00) 19.5 11.67 (15:40) 6.94 (15:40) 0 0 0 0 0
01-06-2019 32.1 (16:40) 11.9 (00:00) 22 10.28 (18:10) 5.56 (17:20) 0 0 0 0 0
31-05-2019 31.2 (18:40) 11 (00:00) 21.1 5.83 (19:30) 3.33 (18:40) 0 0 0 0 0
30-05-2019 28.9 (18:10) 5.9 (00:00) 17.4 8.33 (17:50) 4.72 (18:20) 0 0 0 0 0
29-05-2019 25.1 (19:10) 2.9 (00:00) 14 8.89 (16:00) 4.72 (16:50) 0 0 0 0 0
28-05-2019 24 (16:40) 2.9 (00:00) 13.5 12.22 (18:50) 8.06 (18:40) 0 0 0 0 0

Gráficas

Temp. máximas Temp. mínimas Temp. medias Precipitaciones Rachas de viento máximas Velocidades máximas media en intervalos de 10 minutos

Datos horarios

Fecha y hora oficial Temperatura (ºC) Velocidad del viento (km/h) Dirección del viento Racha (km/h) Dirección de racha Precipitación (mm) Presión (hPa) Tendencia (hPa) Humedad (%)
2019-06-26 23:00:00 21.3 5 Norte 13 Oeste 0 -- -- 57
2019-06-26 22:00:00 24.7 7 Oeste 11 Oeste 0 -- -- 45
2019-06-26 21:00:00 27 5 Sudoeste 21 Sudoeste 0 -- -- 39
2019-06-26 20:00:00 27.5 16 Sudoeste 26 Sudoeste 0 -- -- 38
2019-06-26 19:00:00 28 15 Sudoeste 34 Sur 0 -- -- 37
2019-06-26 18:00:00 28 19 Sudoeste 37 Sudoeste 0 -- -- 38
2019-06-26 17:00:00 28.1 19 Sudoeste 36 Sudoeste 0 -- -- 41
2019-06-26 16:00:00 27.2 18 Sur 33 Sudoeste 0 -- -- 44
2019-06-26 15:00:00 25.3 15 Sudoeste 31 Sudoeste 0 -- -- 51
2019-06-26 14:00:00 25.5 18 Sudoeste 37 Sur 0 -- -- 49
2019-06-26 13:00:00 25 23 Sudoeste 36 Sudoeste 0 -- -- 49
2019-06-26 12:00:00 24.8 22 Sur 37 Sudoeste 0 -- -- 51
2019-06-26 11:00:00 23.5 16 Sur 26 Sur 0 -- -- 61
2019-06-26 10:00:00 20.1 5 Sudeste 12 Este 0 -- -- 75
2019-06-26 09:00:00 17.4 0 Calma 4 Este 0 -- -- 83
2019-06-26 08:00:00 14.3 0 Calma 8 Sudoeste 0 -- -- 91
2019-06-26 07:00:00 13.1 2 Oeste 5 Oeste 0 -- -- 91
2019-06-26 06:00:00 13.4 0 Calma 10 Sudoeste 0 -- -- 92
2019-06-26 05:00:00 13.9 5 Oeste 10 Sudoeste 0 -- -- 90
2019-06-26 04:00:00 14.5 4 Sudoeste 9 Oeste 0 -- -- 89
2019-06-26 03:00:00 16.1 6 Oeste 10 Oeste 0 -- -- 83
2019-06-26 02:00:00 16.5 4 Oeste 12 Oeste 0 -- -- 83
2019-06-26 01:00:00 17 7 Noroeste 9 Noroeste 0 -- -- 83
2019-06-26 00:00:00 18.2 5 Norte 13 Este 0 -- -- 79
2019-06-25 23:00:00 19.3 4 Noroeste 7 Noroeste 0 -- -- 75
2019-06-25 22:00:00 20.6 5 Norte 12 Oeste 0 -- -- 69
2019-06-25 21:00:00 22.2 6 Noroeste 17 Oeste 0 -- -- 59
2019-06-25 20:00:00 23.2 7 Noroeste 12 Noroeste 0 -- -- 57
2019-06-25 19:00:00 23.4 9 Noroeste 20 Noroeste 0 -- -- 58
2019-06-25 18:00:00 23.1 10 Noroeste 19 Noroeste 0 -- -- 65
2019-06-25 17:00:00 21.6 4 Sur 9 Sudeste 0 -- -- 66
2019-06-25 16:00:00 19.9 3 Norte 10 Sudoeste 0 -- -- 74
2019-06-25 15:00:00 18.8 3 Sudeste 12 Sur 0 -- -- 80
2019-06-25 14:00:00 17.9 3 Sudeste 10 Sudeste 0.6 -- -- 84
2019-06-25 13:00:00 17.4 5 Sudeste 9 Sur 0 -- -- 83
2019-06-25 12:00:00 16.4 3 Nordeste 10 Este 0.2 -- -- 88
2019-06-25 11:00:00 15.7 4 Este 9 Nordeste 0 -- -- 89
2019-06-25 10:00:00 15.1 5 Nordeste 9 Norte 0 -- -- 91
2019-06-25 09:00:00 14.1 4 Norte 8 Nordeste 0.2 -- -- 95
2019-06-25 08:00:00 13.3 5 Norte 8 Noroeste 0 -- -- 96
2019-06-25 07:00:00 12.5 4 Noroeste 5 Noroeste 0 -- -- 96
2019-06-25 06:00:00 12.4 0 Calma 4 Noroeste 0 -- -- 96
2019-06-25 05:00:00 12.4 3 Oeste 5 Noroeste 0 -- -- 96
2019-06-25 04:00:00 12.6 4 Noroeste 9 Noroeste 0 -- -- 96
2019-06-25 03:00:00 12.6 6 Noroeste 9 Oeste 0 -- -- 96
2019-06-25 02:00:00 12.4 5 Oeste 8 Oeste 0 -- -- 96
2019-06-25 01:00:00 12.8 4 Sudeste 5 Sudeste 0 -- -- 94
2019-06-25 00:00:00 13.5 0 Calma 10 Noroeste 0 -- -- 94
2019-06-24 23:00:00 13.9 4 Oeste 7 Sudoeste 0 -- -- 94
2019-06-24 22:00:00 14 0 Calma 10 Sur 0 -- -- 94
2019-06-24 21:00:00 14 0 Calma 14 Este 1.6 -- -- 95
2019-06-24 20:00:00 13.9 2 Sudeste 9 Sudoeste 1 -- -- 94
2019-06-24 19:00:00 13.9 5 Sudoeste 15 Sudoeste 4.8 -- -- 94
2019-06-24 18:00:00 14.2 3 Sudoeste 12 Sudoeste 5.4 -- -- 94
2019-06-24 17:00:00 14.4 6 Sur 8 Sur 3.2 -- -- 93
2019-06-24 16:00:00 14.7 2 Sur 6 Sudoeste 2.6 -- -- 91
2019-06-24 15:00:00 15.1 5 Sudoeste 13 Sudoeste 2 -- -- 89
2019-06-24 14:00:00 15.9 8 Sudoeste 13 Sudoeste 0.2 -- -- 83
2019-06-24 13:00:00 15.5 2 Sudoeste 6 Sudoeste 0 -- -- 88
2019-06-24 12:00:00 14.3 5 Nordeste 16 Este 0 -- -- 90
2019-06-24 11:00:00 13.8 9 Sudeste 21 Sudeste 0.6 -- -- 91
2019-06-24 10:00:00 14.8 5 Sudeste 18 Sur 2.6 -- -- 88
2019-06-24 09:00:00 16.1 5 Este 10 Oeste 2.8 -- -- 94
2019-06-24 08:00:00 16 4 Oeste 11 Oeste 0.8 -- -- 95
2019-06-24 07:00:00 15.8 0 Calma 7 Noroeste 0.4 -- -- 93
2019-06-24 06:00:00 15.9 0 Calma 5 Sudeste 0.4 -- -- 93
2019-06-24 05:00:00 16.1 0 Calma 8 Sur 1 -- -- 92
2019-06-24 04:00:00 16.2 3 Este 6 Este 0.2 -- -- 91
2019-06-24 03:00:00 16.4 3 Sudeste 8 Este 0.2 -- -- 91
2019-06-24 02:00:00 16.7 4 Sudeste 8 Sudeste 0 -- -- 88
2019-06-24 01:00:00 17.2 3 Sudoeste 7 Sudoeste 0.2 -- -- 86
2019-06-24 00:00:00 17.6 4 Oeste 6 Oeste 0 -- -- 83
2019-06-23 23:00:00 17.7 2 Sudoeste 10 Oeste 0 -- -- 83
2019-06-23 22:00:00 18 9 Oeste 14 Oeste 0 -- -- 85
2019-06-23 21:00:00 18.8 12 Oeste 30 Oeste 0.2 -- -- 81
2019-06-23 20:00:00 21.6 19 Oeste 33 Oeste 0 -- -- 63
2019-06-23 19:00:00 24 21 Oeste 35 Oeste 0 -- -- 52
2019-06-23 18:00:00 24.1 13 Sudoeste 32 Sudoeste 0 -- -- 49
2019-06-23 17:00:00 23.5 20 Sudoeste 30 Sudoeste 0 -- -- 50
2019-06-23 16:00:00 21.3 13 Sudoeste 32 Sudoeste 0.2 -- -- 59
2019-06-23 15:00:00 23.1 18 Sudoeste 31 Sudoeste 0 -- -- 47
2019-06-23 14:00:00 22.7 18 Sudoeste 36 Sudoeste 0 -- -- 48
2019-06-23 13:00:00 23.1 29 Sudoeste 42 Sur 0 -- -- 40
2019-06-23 12:00:00 23.2 21 Sur 34 Sur 0 -- -- 35
2019-06-23 11:00:00 21.6 7 Sudeste 19 Sudeste 0 -- -- 40
2019-06-23 10:00:00 19.7 11 Sudeste 18 Sudeste 0 -- -- 40
2019-06-23 09:00:00 16.3 3 Sur 6 Sudoeste 0 -- -- 52
2019-06-23 08:00:00 15.1 0 Calma 5 Sur 0 -- -- 53
2019-06-23 07:00:00 14.8 2 Sudeste 10 Sudoeste 0 -- -- 53
2019-06-23 06:00:00 15.9 8 Sudoeste 19 Sudoeste 0 -- -- 46
2019-06-23 05:00:00 17.2 12 Oeste 21 Oeste 0 -- -- 41
2019-06-23 04:00:00 16.7 3 Sudeste 13 Sudoeste 0 -- -- 47
2019-06-23 03:00:00 17.5 9 Sudoeste 12 Sudoeste 0 -- -- 46
2019-06-23 02:00:00 18.1 4 Sudoeste 9 Sudoeste 0 -- -- 47
2019-06-23 01:00:00 19.1 6 Sudoeste 15 Oeste 0 -- -- 45
2019-06-23 00:00:00 20.7 10 Oeste 20 Oeste 0 -- -- 41
2019-06-22 23:00:00 22.2 13 Oeste 20 Sudoeste 0 -- -- 39
2019-06-22 22:00:00 23.8 12 Sudoeste 21 Sudoeste 0 -- -- 32
2019-06-22 21:00:00 25.3 8 Sudoeste 21 Sudoeste 0 -- -- 26
2019-06-22 20:00:00 26.1 14 Sudoeste 29 Oeste 0 -- -- 26
2019-06-22 19:00:00 26.9 15 Oeste 36 Sudoeste 0 -- -- 28
2019-06-22 18:00:00 28.2 21 Sudoeste 39 Sudoeste 0 -- -- 26
2019-06-22 17:00:00 27.9 24 Sudoeste 41 Sudoeste 0 -- -- 26
2019-06-22 16:00:00 28.2 18 Oeste 34 Sudoeste 0 -- -- 26
2019-06-22 15:00:00 26.3 11 Sur 24 Sur 0 -- -- 34
2019-06-22 14:00:00 24.9 9 Sudeste 22 Este 0 -- -- 35
2019-06-22 13:00:00 23.8 10 Sudeste 20 Este 0 -- -- 37
2019-06-22 12:00:00 20.4 6 Este 17 Este 0 -- -- 46
2019-06-22 11:00:00 17.8 7 Nordeste 17 Nordeste 0 -- -- 54
2019-06-22 10:00:00 15.6 6 Nordeste 21 Nordeste 0 -- -- 63
2019-06-22 09:00:00 14 5 Nordeste 9 Nordeste 0 -- -- 74
2019-06-22 08:00:00 11.8 5 Norte 9 Noroeste 0 -- -- 83
2019-06-22 07:00:00 10.4 2 Noroeste 11 Norte 0 -- -- 85
2019-06-22 06:00:00 10.2 2 Norte 8 Nordeste 0 -- -- 85
2019-06-22 05:00:00 10.8 4 Norte 12 Norte 0 -- -- 82
2019-06-22 04:00:00 11.1 9 Norte 12 Norte 0 -- -- 82
2019-06-22 03:00:00 12.3 4 Nordeste 9 Este 0 -- -- 74
2019-06-22 02:00:00 13.8 5 Nordeste 10 Este 0 -- -- 69
2019-06-22 01:00:00 14.3 4 Este 10 Este 0 -- -- 64
2019-06-22 00:00:00 15.2 0 Calma 4 Noroeste 0 -- -- 56
2019-06-21 23:00:00 17.1 4 Este 10 Este 0 -- -- 50
2019-06-21 22:00:00 18.6 8 Este 19 Este 0 -- -- 45
2019-06-21 21:00:00 21.2 13 Este 24 Este 0 -- -- 39
2019-06-21 20:00:00 23.8 10 Sudeste 26 Sur 0 -- -- 34
2019-06-21 19:00:00 23.6 10 Sur 28 Sur 0 -- -- 34
2019-06-21 18:00:00 23.8 8 Sudeste 24 Este 0 -- -- 35
2019-06-21 17:00:00 21.9 13 Este 25 Sudeste 0 -- -- 38
2019-06-21 16:00:00 22.2 12 Este 26 Este 0 -- -- 37
2019-06-21 15:00:00 21.8 14 Este 30 Este 0 -- -- 41
2019-06-21 14:00:00 20.8 13 Sudeste 24 Este 0 -- -- 46
2019-06-21 13:00:00 18.4 7 Nordeste 18 Este 0 -- -- 54
2019-06-21 12:00:00 17.5 8 Nordeste 17 Nordeste 0 -- -- 56
2019-06-21 11:00:00 17 6 Nordeste 15 Este 0 -- -- 61
2019-06-21 10:00:00 16.3 6 Este 13 Este 0 -- -- 66
2019-06-21 09:00:00 13.4 2 Este 5 Oeste 0 -- -- 77
2019-06-21 08:00:00 10.3 4 Oeste 9 Noroeste 0 -- -- 91
2019-06-21 07:00:00 7.5 5 Noroeste 8 Noroeste 0 -- -- 93
2019-06-21 06:00:00 7.5 3 Norte 7 Noroeste 0 -- -- 92
2019-06-21 05:00:00 8.9 5 Oeste 9 Noroeste 0 -- -- 92
2019-06-21 04:00:00 9.6 4 Oeste 6 Sur 0 -- -- 87
2019-06-21 03:00:00 11.2 3 Oeste 5 Norte 0 -- -- 87
2019-06-21 02:00:00 11.7 4 Norte 8 Norte 0 -- -- 86
2019-06-21 01:00:00 12.9 3 Nordeste 8 Norte 0 -- -- 85
2019-06-21 00:00:00 13.4 8 Nordeste 14 Este 0 -- -- 84
2019-06-20 23:00:00 13.7 5 Nordeste 29 Nordeste 0 -- -- 84
2019-06-20 22:00:00 15.2 17 Nordeste 38 Este 0.2 -- -- 75
2019-06-20 21:00:00 17 22 Norte 41 Norte 0 -- -- 63
2019-06-20 20:00:00 18.9 29 Norte 45 Norte 0 -- -- 55
2019-06-20 19:00:00 21.7 20 Norte 35 Norte 0 -- -- 42
2019-06-20 18:00:00 22.5 22 Norte 32 Norte 0 -- -- 44
2019-06-20 17:00:00 22.8 11 Sur 21 Sur 0 -- -- 38
2019-06-20 16:00:00 22.9 10 Sudoeste 21 Sudoeste 0 -- -- 39
2019-06-20 15:00:00 23.3 10 Sur 19 Sur 0 -- -- 40
2019-06-20 14:00:00 21.3 6 Sur 16 Sudoeste 0 -- -- 48
2019-06-20 13:00:00 20.1 5 Sur 13 Norte 0 -- -- 55
2019-06-20 12:00:00 18.3 6 Norte 15 Norte 0 -- -- 62
2019-06-20 11:00:00 16.1 3 Nordeste 14 Este 0 -- -- 70
2019-06-20 10:00:00 15 5 Norte 13 Este 0 -- -- 74
2019-06-20 09:00:00 12.9 4 Norte 9 Norte 0 -- -- 80
2019-06-20 08:00:00 10 4 Noroeste 10 Sur 0 -- -- 87
2019-06-20 07:00:00 9.6 2 Sudoeste 8 Norte 0 -- -- 89
2019-06-20 06:00:00 10 3 Oeste 8 Oeste 0 -- -- 84
2019-06-20 05:00:00 8.2 6 Noroeste 8 Noroeste 0 -- -- 88
2019-06-20 04:00:00 9 5 Oeste 7 Noroeste 0 -- -- 85
2019-06-20 03:00:00 9.1 0 Calma 8 Noroeste 0 -- -- 80
2019-06-20 02:00:00 10.2 3 Oeste 7 Noroeste 0 -- -- 74
2019-06-20 01:00:00 11.1 5 Norte 10 Norte 0 -- -- 72
2019-06-20 00:00:00 14.4 5 Oeste 9 Oeste 0 -- -- 61
2019-06-19 23:00:00 16.1 3 Norte 13 Oeste 0 -- -- 55
2019-06-19 22:00:00 18.6 9 Oeste 28 Oeste 0 -- -- 48
2019-06-19 21:00:00 20.7 18 Oeste 30 Sudoeste 0 -- -- 43
2019-06-19 20:00:00 21.6 19 Oeste 33 Oeste 0 -- -- 43
2019-06-19 19:00:00 22.4 17 Oeste 37 Oeste 0 -- -- 41
2019-06-19 18:00:00 23.1 21 Sudoeste 39 Sudoeste 0 -- -- 41
2019-06-19 17:00:00 22.1 23 Sudoeste 40 Sudoeste 0 -- -- 43
2019-06-19 16:00:00 22 23 Sudoeste 36 Sudoeste 0 -- -- 46
2019-06-19 15:00:00 21.2 16 Oeste -- -- -- -- -- 49
2019-06-19 14:00:00 -- -- -- -- -- -- -- -- --
2019-06-19 13:00:00 -- -- -- -- -- -- -- -- --
2019-06-19 12:00:00 -- -- -- -- -- -- -- -- --
2019-06-19 11:00:00 -- -- -- -- -- -- -- -- --
2019-06-19 10:00:00 -- -- -- -- -- -- -- -- --
2019-06-19 09:00:00 -- -- -- -- -- -- -- -- --
2019-06-19 08:00:00 -- -- -- -- -- -- -- -- --
2019-06-19 07:00:00 -- -- -- -- -- -- -- -- --
2019-06-19 06:00:00 -- -- -- -- -- -- -- -- --
2019-06-19 05:00:00 -- -- -- -- -- -- -- -- --
2019-06-19 04:00:00 -- -- -- -- -- -- -- -- --
2019-06-19 03:00:00 -- -- -- -- -- -- -- -- --
2019-06-19 02:00:00 -- -- -- -- -- -- -- -- --
2019-06-19 01:00:00 -- -- -- -- -- -- -- -- --
2019-06-19 00:00:00 -- -- -- -- -- -- -- -- --
2019-06-18 23:00:00 -- -- -- -- -- -- -- -- --
2019-06-18 22:00:00 -- -- -- -- -- -- -- -- --
2019-06-18 21:00:00 -- -- -- -- -- -- -- -- --
2019-06-18 20:00:00 -- -- -- -- -- -- -- -- --
2019-06-18 19:00:00 19.4 22 Sudoeste 45 Sudoeste 0 -- -- 55
2019-06-18 18:00:00 21.5 30 Sudoeste 51 Sur 0 -- -- 43
2019-06-18 17:00:00 22.5 34 Sudoeste 58 Sur 0 -- -- 40
2019-06-18 16:00:00 21.6 27 Sudoeste 44 Sudoeste 0 -- -- 49
2019-06-18 15:00:00 20.9 20 Sudoeste 49 Oeste 0 -- -- 50
2019-06-18 14:00:00 22.2 18 Sudoeste 47 Sudoeste 0 -- -- 41
2019-06-18 13:00:00 22.9 25 Sudoeste 41 Sudoeste 0 -- -- 36
2019-06-18 12:00:00 21.6 26 Sur 40 Sudoeste 0 -- -- 35
2019-06-18 11:00:00 20.4 18 Sudoeste 30 Sudoeste 0 -- -- 33
2019-06-18 10:00:00 18.5 16 Sudoeste 28 Sur 0 -- -- 34
2019-06-18 09:00:00 12.7 2 Nordeste 4 Nordeste 0 -- -- 58
2019-06-18 08:00:00 8.5 0 Calma 4 Este 0 -- -- 71
2019-06-18 07:00:00 6.5 0 Calma 4 Sudoeste 0 -- -- 74
2019-06-18 06:00:00 7.3 3 Noroeste 5 Oeste 0 -- -- 72
2019-06-18 05:00:00 9 2 Norte 5 Norte 0 -- -- 66
2019-06-18 04:00:00 10.8 4 Noroeste 6 Oeste 0 -- -- 60
2019-06-18 03:00:00 12.3 3 Sur 9 Noroeste 0 -- -- 57
2019-06-18 02:00:00 13.7 6 Noroeste 11 Oeste 0 -- -- 52
2019-06-18 01:00:00 16.7 3 Norte 9 Nordeste 0 -- -- 43
2019-06-18 00:00:00 18 4 Nordeste 17 Oeste 0 -- -- 42
2019-06-17 23:00:00 19.3 10 Oeste 25 Oeste 0 -- -- 35
2019-06-17 22:00:00 19.6 8 Sudoeste 15 Sudoeste 0 -- -- 35
2019-06-17 21:00:00 21 10 Oeste 23 Sudoeste 0 -- -- 32
2019-06-17 20:00:00 21.5 10 Sudoeste 21 Oeste 0 -- -- 30
2019-06-17 19:00:00 22.1 13 Oeste 24 Oeste 0 -- -- 29
2019-06-17 18:00:00 23.2 17 Oeste 31 Oeste 0 -- -- 26
2019-06-17 17:00:00 23.8 17 Oeste 33 Oeste 0 -- -- 24
2019-06-17 16:00:00 25.7 18 Oeste 38 Sudoeste 0 -- -- 21
2019-06-17 15:00:00 26.6 15 Sudoeste 41 Sur 0 -- -- 20
2019-06-17 14:00:00 26.5 22 Sudoeste 40 Sudoeste 0 -- -- 21
2019-06-17 13:00:00 25.7 21 Sudoeste 36 Sudoeste 0 -- -- 24
2019-06-17 12:00:00 23.9 15 Sur 27 Sur 0 -- -- 31
2019-06-17 11:00:00 21.1 5 Sudeste 13 Sudeste 0 -- -- 46
2019-06-17 10:00:00 17.8 5 Sudeste 12 Sudeste 0 -- -- 60
2019-06-17 09:00:00 14.3 0 Calma 4 Sudoeste 0 -- -- 65
2019-06-17 08:00:00 9.8 0 Calma 5 Sudoeste 0 -- -- 74
2019-06-17 07:00:00 8.2 3 Noroeste 6 Noroeste 0 -- -- 81
2019-06-17 06:00:00 9.1 4 Noroeste 7 Noroeste 0 -- -- 77
2019-06-17 05:00:00 9.6 4 Oeste 9 Noroeste 0 -- -- 74
2019-06-17 04:00:00 10 5 Oeste 8 Oeste 0 -- -- 68
2019-06-17 03:00:00 9.7 2 Noroeste 8 Sur 0 -- -- 67
2019-06-17 02:00:00 12.1 5 Sudeste 10 Oeste 0 -- -- 56
2019-06-17 01:00:00 14.7 4 Noroeste 6 Noroeste 0 -- -- 50
2019-06-17 00:00:00 16.5 3 Noroeste 12 Oeste 0 -- -- 45
2019-06-16 23:00:00 19.4 7 Oeste 14 Oeste 0 -- -- 36
2019-06-16 22:00:00 21.6 8 Oeste 18 Sudoeste 0 -- -- 30
2019-06-16 21:00:00 23.3 11 Sudoeste 22 Sudoeste 0 -- -- 26
2019-06-16 20:00:00 24.8 14 Sudoeste 24 Sudoeste 0 -- -- 23
2019-06-16 19:00:00 25.8 12 Sudoeste 29 Sudoeste 0 -- -- 22
2019-06-16 18:00:00 27 9 Sudoeste 24 Sur 0 -- -- 21
2019-06-16 17:00:00 26.3 11 Sur 27 Sur 0 -- -- 22
2019-06-16 16:00:00 25.5 11 Sudoeste 27 Sur 0 -- -- 25
2019-06-16 15:00:00 25 10 Sudeste 24 Oeste 0 -- -- 24
2019-06-16 14:00:00 24 11 Sur 23 Sur 0 -- -- 27
2019-06-16 13:00:00 22.3 8 Sudeste 18 Este 0 -- -- 32
2019-06-16 12:00:00 19.4 6 Norte 13 Este 0 -- -- 44
2019-06-16 11:00:00 17.1 5 Nordeste 13 Nordeste 0 -- -- 52
2019-06-16 10:00:00 15 6 Nordeste 14 Norte 0 -- -- 58
2019-06-16 09:00:00 12.9 8 Nordeste 13 Nordeste 0 -- -- 67
2019-06-16 08:00:00 8.4 0 Calma 4 Sur 0 -- -- 85
2019-06-16 07:00:00 6.5 0 Calma 6 Noroeste 0 -- -- 86
2019-06-16 06:00:00 7.2 3 Noroeste 6 Norte 0 -- -- 85
2019-06-16 05:00:00 6.5 2 Norte 8 Noroeste 0 -- -- 82
2019-06-16 04:00:00 7.1 2 Noroeste 8 Noroeste 0 -- -- 78
2019-06-16 03:00:00 8.2 0 Calma 7 Noroeste 0 -- -- 71
2019-06-16 02:00:00 9.4 3 Noroeste 5 Noroeste 0 -- -- 69
2019-06-16 01:00:00 10 4 Noroeste 9 Noroeste 0 -- -- 66
2019-06-16 00:00:00 13 4 Noroeste 6 Noroeste 0 -- -- 56
2019-06-15 23:00:00 15.2 3 Norte 12 Sudoeste 0 -- -- 48
2019-06-15 22:00:00 18.4 6 Sudoeste 20 Sudoeste 0 -- -- 39
2019-06-15 21:00:00 20.9 11 Sudoeste 17 Sudoeste 0 -- -- 34
2019-06-15 20:00:00 22 11 Sur 21 Sudoeste 0 -- -- 27
2019-06-15 19:00:00 22.5 17 Sudoeste 31 Sudoeste 0 -- -- 27
2019-06-15 18:00:00 22.7 13 Sudoeste 30 Oeste 0 -- -- 26
2019-06-15 17:00:00 22.6 14 Oeste 25 Sudoeste 0 -- -- 30
2019-06-15 16:00:00 21.8 8 Noroeste 24 Oeste 0 -- -- 31
2019-06-15 15:00:00 19.5 6 Sudoeste 23 Sudoeste 0 -- -- 36
2019-06-15 14:00:00 19.2 6 Sudoeste 23 Sudeste 0 -- -- 36
2019-06-15 13:00:00 18 8 Sudeste 17 Este 0 -- -- 39
2019-06-15 12:00:00 16 7 Oeste 14 Nordeste 0 -- -- 47
2019-06-15 11:00:00 14.5 4 Sudeste 12 Sudeste 0 -- -- 54
2019-06-15 10:00:00 12.8 3 Sur 6 Sudeste 0 -- -- 60
2019-06-15 09:00:00 9.7 0 Calma 4 Sudeste 0 -- -- 72
2019-06-15 08:00:00 5.2 0 Calma 2 Norte 0 -- -- 86
2019-06-15 07:00:00 2.6 0 Calma -- -- 0 -- -- 86
2019-06-15 06:00:00 3.6 3 Sudoeste 6 Sudoeste 0 -- -- 85
2019-06-15 05:00:00 4.3 3 Noroeste 6 Noroeste 0 -- -- 85
2019-06-15 04:00:00 6 3 Noroeste 8 Noroeste 0 -- -- 81
2019-06-15 03:00:00 7.1 3 Norte 8 Oeste 0 -- -- 76
2019-06-15 02:00:00 9.2 2 Oeste 5 Noroeste 0 -- -- 70
2019-06-15 01:00:00 10 3 Noroeste 11 Sudoeste 0 -- -- 67
2019-06-15 00:00:00 10.9 6 Oeste 18 Oeste 0 -- -- 64
2019-06-14 23:00:00 13.1 12 Oeste 27 Oeste 0 -- -- 57
2019-06-14 22:00:00 15.2 16 Oeste 37 Oeste 0 -- -- 47
2019-06-14 21:00:00 16.6 22 Sudoeste 42 Sudoeste 0 -- -- 44
2019-06-14 20:00:00 18.8 22 Sudoeste 43 Sudoeste 0 -- -- 36
2019-06-14 19:00:00 19.8 20 Sudoeste 42 Sudoeste 0 -- -- 32
2019-06-14 18:00:00 20.2 20 Sudoeste 43 Sudoeste 0 -- -- 30
2019-06-14 17:00:00 20.3 22 Oeste 39 Sudoeste 0 -- -- 32
2019-06-14 16:00:00 20.7 24 Sudoeste 44 Sudoeste 0 -- -- 33
2019-06-14 15:00:00 21.5 25 Sudoeste 40 Sudoeste 0 -- -- 30
2019-06-14 14:00:00 20.4 14 Sudoeste 27 Sudoeste 0 -- -- 35
2019-06-14 13:00:00 18.5 10 Sudoeste 22 Sudoeste 0 -- -- 39
2019-06-14 12:00:00 16.9 5 Oeste 12 Oeste 0 -- -- 44
2019-06-14 11:00:00 14.9 3 Norte 10 Nordeste 0 -- -- 58
2019-06-14 10:00:00 13 2 Oeste 8 Noroeste 0 -- -- 63
2019-06-14 09:00:00 9.9 2 Oeste 7 Noroeste 0 -- -- 71
2019-06-14 08:00:00 6.2 2 Noroeste 9 Noroeste 0 -- -- 82
2019-06-14 07:00:00 3.8 6 Noroeste 8 Noroeste 0 -- -- 88
2019-06-14 06:00:00 3.6 5 Noroeste 7 Noroeste 0 -- -- 85
2019-06-14 05:00:00 4.4 6 Noroeste 10 Noroeste 0 -- -- 82
2019-06-14 04:00:00 6.1 8 Noroeste 9 Noroeste 0 -- -- 74
2019-06-14 03:00:00 6.9 2 Norte 8 Norte 0 -- -- 70
2019-06-14 02:00:00 7.6 7 Noroeste 10 Noroeste 0 -- -- 68
2019-06-14 01:00:00 10.2 3 Oeste 11 Norte 0 -- -- 58
2019-06-14 00:00:00 10.7 10 Norte 14 Nordeste 0 -- -- 57
2019-06-13 23:00:00 12.6 5 Norte 14 Noroeste 0 -- -- 50
2019-06-13 22:00:00 16.3 5 Oeste 18 Oeste 0 -- -- 35
2019-06-13 21:00:00 18.4 15 Oeste 30 Oeste 0 -- -- 31
2019-06-13 20:00:00 19.4 15 Sudoeste 33 Sudoeste 0 -- -- 30
2019-06-13 19:00:00 20.2 21 Sudoeste 35 Oeste 0 -- -- 27
2019-06-13 18:00:00 20.8 16 Sudoeste 37 Sudoeste 0 -- -- 27
2019-06-13 17:00:00 21.2 19 Sudoeste 36 Sudoeste 0 -- -- 27
2019-06-13 16:00:00 20.7 20 Sudoeste 34 Sudoeste 0 -- -- 28
2019-06-13 15:00:00 20.2 13 Sudoeste 30 Sur 0 -- -- 32
2019-06-13 14:00:00 19.3 14 Sudoeste 28 Sudoeste 0 -- -- 35
2019-06-13 13:00:00 18.3 13 Sur 24 Sudoeste 0 -- -- 39
2019-06-13 12:00:00 15.9 5 Norte 11 Sur 0 -- -- 46
2019-06-13 11:00:00 14.2 5 Este 13 Sur 0 -- -- 52
2019-06-13 10:00:00 12.3 4 Nordeste 9 Nordeste 0 -- -- 59
2019-06-13 09:00:00 8.3 4 Sudoeste 7 Sur 0 -- -- 70
2019-06-13 08:00:00 5.7 2 Sudoeste 6 Oeste 0 -- -- 80
2019-06-13 07:00:00 4.2 3 Noroeste 8 Noroeste 0 -- -- 83
2019-06-13 06:00:00 4.8 3 Noroeste 5 Noroeste 0 -- -- 83
2019-06-13 05:00:00 5.2 5 Noroeste 8 Noroeste 0 -- -- 81
2019-06-13 04:00:00 7 4 Norte 9 Noroeste 0 -- -- 74
2019-06-13 03:00:00 7.5 5 Noroeste 10 Noroeste 0 -- -- 69
2019-06-13 02:00:00 8.6 6 Noroeste 14 Noroeste 0 -- -- 63
2019-06-13 01:00:00 9 10 Norte 14 Nordeste 0 -- -- 61
2019-06-13 00:00:00 11 3 Norte 13 Noroeste 0 -- -- 54
2019-06-12 23:00:00 12.4 5 Norte 13 Oeste 0 -- -- 50
2019-06-12 22:00:00 15.8 9 Oeste 21 Sudoeste 0 -- -- 38
2019-06-12 21:00:00 18.4 16 Sudoeste 27 Sudoeste 0 -- -- 31
2019-06-12 20:00:00 19.5 12 Sudoeste 31 Sur 0 -- -- 29
2019-06-12 19:00:00 20 8 Sudoeste 22 Sudoeste 0 -- -- 28
2019-06-12 18:00:00 19.6 12 Oeste 32 Sudoeste 0 -- -- 27
2019-06-12 17:00:00 18.4 10 Oeste 30 Sudoeste 0 -- -- 28
2019-06-12 16:00:00 18.9 14 Sudoeste 26 Sudoeste 0 -- -- 27
2019-06-12 15:00:00 18.2 10 Oeste 32 Sudoeste 0 -- -- 32
2019-06-12 14:00:00 16.5 10 Sudoeste 22 Oeste 0 -- -- 33
2019-06-12 13:00:00 15.2 8 Oeste 18 Sur 0 -- -- 36
2019-06-12 12:00:00 14.1 6 Norte 22 Sur 0 -- -- 39
2019-06-12 11:00:00 13 5 Norte 17 Oeste 0 -- -- 41
2019-06-12 10:00:00 11.6 9 Norte 17 Norte 0 -- -- 46
2019-06-12 09:00:00 8.2 0 Calma 8 Sudoeste 0 -- -- 64
2019-06-12 08:00:00 3.4 5 Sudoeste 10 Sudoeste 0 -- -- 78
2019-06-12 07:00:00 3.8 3 Noroeste 10 Noroeste 0 -- -- 74
2019-06-12 06:00:00 5.1 4 Noroeste 9 Noroeste 0 -- -- 71
2019-06-12 05:00:00 5.6 6 Noroeste 18 Norte 0 -- -- 70
2019-06-12 04:00:00 5.9 9 Norte 16 Noroeste 0 -- -- 69
2019-06-12 03:00:00 6.6 5 Norte 17 Noroeste 0 -- -- 67
2019-06-12 02:00:00 7.8 4 Noroeste 30 Norte 0 -- -- 60
2019-06-12 01:00:00 8.7 15 Norte 28 Norte 0 -- -- 57
2019-06-12 00:00:00 9.4 18 Norte 28 Norte 0 -- -- 55
2019-06-11 23:00:00 10.5 15 Norte 29 Norte 0 -- -- 51
2019-06-11 22:00:00 12 16 Norte 35 Norte 0 -- -- 46
2019-06-11 21:00:00 14.6 23 Norte 39 Noroeste 0 -- -- 40
2019-06-11 20:00:00 16.1 23 Noroeste 36 Noroeste 0 -- -- 35
2019-06-11 19:00:00 17.4 20 Noroeste 40 Noroeste 0 -- -- 32
2019-06-11 18:00:00 17.8 20 Noroeste 33 Noroeste 0 -- -- 31
2019-06-11 17:00:00 17.6 19 Norte 34 Norte 0 -- -- 32
2019-06-11 16:00:00 17.3 18 Norte 39 Norte 0 -- -- 31
2019-06-11 15:00:00 17.6 19 Norte 38 Nordeste 0 -- -- 31
2019-06-11 14:00:00 16.4 19 Nordeste 36 Norte 0 -- -- 30
2019-06-11 13:00:00 15.5 18 Norte 32 Norte 0 -- -- 34
2019-06-11 12:00:00 14.4 21 Nordeste 40 Norte 0 -- -- 37
2019-06-11 11:00:00 13.7 19 Noroeste 35 Noroeste 0 -- -- 40
2019-06-11 10:00:00 12.1 19 Norte 35 Norte 0 -- -- 50
2019-06-11 09:00:00 11.5 11 Noroeste 23 Noroeste 0 -- -- 52
2019-06-11 08:00:00 9.1 5 Nordeste 10 Norte 0 -- -- 62
2019-06-11 07:00:00 8.3 8 Norte 25 Noroeste 0 -- -- 64
2019-06-11 06:00:00 8.8 13 Norte 23 Norte 0 -- -- 60
2019-06-11 05:00:00 8.6 4 Norte 20 Norte 0 -- -- 64
2019-06-11 04:00:00 9.4 6 Norte 26 Norte 0 -- -- 61
2019-06-11 03:00:00 10.6 20 Nordeste 29 Norte 0 -- -- 61
2019-06-11 02:00:00 11.6 15 Norte 31 Norte 0 -- -- 60
2019-06-11 01:00:00 12.3 21 Norte 39 Norte 0 -- -- 62
2019-06-11 00:00:00 12.9 22 Norte 37 Norte 0 -- -- 56
2019-06-10 23:00:00 13.5 19 Norte 36 Norte 0 -- -- 51
2019-06-10 22:00:00 14.6 25 Noroeste 43 Norte 0 -- -- 47
2019-06-10 21:00:00 16.4 18 Norte 35 Norte 0 -- -- 45
2019-06-10 20:00:00 18.6 17 Norte 27 Norte 0 -- -- 40
2019-06-10 19:00:00 19.9 18 Norte 26 Norte 0 -- -- 35
2019-06-10 18:00:00 19.9 14 Norte 25 Norte 0 -- -- 32
2019-06-10 17:00:00 21.1 8 Sur 26 Sur 0 -- -- 33
2019-06-10 16:00:00 19.8 9 Sudoeste 19 Sudoeste 0 -- -- 32
2019-06-10 15:00:00 19.7 5 Sudoeste 23 Noroeste 0 -- -- 36
2019-06-10 14:00:00 17.8 6 Sudeste 17 Sudeste 0 -- -- 39
2019-06-10 13:00:00 16.1 6 Sur 20 Sur 0 -- -- 48
2019-06-10 12:00:00 14.2 4 Oeste 10 Este 0 -- -- 55
2019-06-10 11:00:00 12.8 5 Sur 10 Sur 0 -- -- 65
2019-06-10 10:00:00 11.5 3 Sudeste 6 Sur 0 -- -- 69
2019-06-10 09:00:00 8.9 0 Calma 5 Noroeste 0 -- -- 85
2019-06-10 08:00:00 5.2 2 Noroeste 5 Noroeste 0 -- -- 93
2019-06-10 07:00:00 4.5 0 Calma 4 Noroeste 0 -- -- 93
2019-06-10 06:00:00 4.6 4 Noroeste 5 Noroeste 0 -- -- 90
2019-06-10 05:00:00 5.2 2 Sur 6 Noroeste 0 -- -- 89
2019-06-10 04:00:00 7.4 2 Noroeste 7 Norte 0 -- -- 82
2019-06-10 03:00:00 8 4 Norte 8 Noroeste 0 -- -- 79
2019-06-10 02:00:00 8.9 4 Norte 9 Norte 0 -- -- 76
2019-06-10 01:00:00 10.1 8 Nordeste 18 Nordeste 0 -- -- 74
2019-06-10 00:00:00 12.2 17 Nordeste 29 Norte 0 -- -- 66
2019-06-09 23:00:00 12.2 13 Norte 24 Norte 0 -- -- 66
2019-06-09 22:00:00 13.2 14 Norte 30 Norte 0 -- -- 61
2019-06-09 21:00:00 15.2 8 Norte 25 Este 0 -- -- 64
2019-06-09 20:00:00 14.7 18 Nordeste 31 Nordeste 5.6 -- -- 65
2019-06-09 19:00:00 16.3 13 Este 18 Este 0.2 -- -- 60
2019-06-09 18:00:00 15.9 4 Norte 34 Norte 1 -- -- 73
2019-06-09 17:00:00 20.3 7 Noroeste 27 Oeste 0 -- -- 35
2019-06-09 16:00:00 20.8 14 Oeste 30 Sudoeste 0 -- -- 35
2019-06-09 15:00:00 21.9 12 Sudoeste 30 Sudoeste 0 -- -- 29
2019-06-09 14:00:00 20.7 9 Sudoeste 26 Oeste 0 -- -- 31
2019-06-09 13:00:00 19.7 6 Sudoeste 23 Sur 0 -- -- 36
2019-06-09 12:00:00 17.8 7 Sudeste 17 Sudoeste 0 -- -- 48
2019-06-09 11:00:00 15.7 6 Sur 14 Sur 0 -- -- 59
2019-06-09 10:00:00 13.8 3 Este 8 Sudeste 0 -- -- 65
2019-06-09 09:00:00 11 0 Calma 3 Noroeste 0 -- -- 75
2019-06-09 08:00:00 7.1 0 Calma 5 Noroeste 0 -- -- 88
2019-06-09 07:00:00 6.1 0 Calma 5 Oeste 0 -- -- 86
2019-06-09 06:00:00 6.7 4 Noroeste 6 Noroeste 0 -- -- 88
2019-06-09 05:00:00 7.9 0 Calma 9 Noroeste 0 -- -- 82
2019-06-09 04:00:00 9.5 4 Noroeste 8 Noroeste 0 -- -- 76
2019-06-09 03:00:00 11.7 4 Este 7 Este 0 -- -- 69
2019-06-09 02:00:00 13.2 5 Nordeste 13 Nordeste 0 -- -- 63
2019-06-09 01:00:00 14.1 6 Norte 12 Norte 0 -- -- 59
2019-06-09 00:00:00 15.2 4 Norte 9 Noroeste 0 -- -- 56
2019-06-08 23:00:00 16.2 5 Norte 11 Norte 0 -- -- 50
2019-06-08 22:00:00 17.9 5 Oeste 15 Oeste 0 -- -- 38
2019-06-08 21:00:00 19.5 10 Oeste 20 Oeste 0 -- -- 33
2019-06-08 20:00:00 20.9 8 Oeste 19 Sudoeste 0 -- -- 29
2019-06-08 19:00:00 21.6 8 Sudoeste 21 Sudoeste 0 -- -- 26
2019-06-08 18:00:00 21.5 12 Sudoeste 22 Sudoeste 0 -- -- 25
2019-06-08 17:00:00 21.9 6 Norte 16 Sur 0 -- -- 25
2019-06-08 16:00:00 21.1 6 Oeste 22 Sur 0 -- -- 29
2019-06-08 15:00:00 19.4 8 Oeste 19 Oeste 0 -- -- 31
2019-06-08 14:00:00 18.4 12 Sudeste 24 Sudeste 0 -- -- 36
2019-06-08 13:00:00 16.6 5 Nordeste 22 Este 0 -- -- 42
2019-06-08 12:00:00 15 6 Nordeste 16 Norte 0 -- -- 47
2019-06-08 11:00:00 12.8 7 Nordeste 12 Nordeste 0 -- -- 58
2019-06-08 10:00:00 10.6 6 Nordeste 13 Este 0 -- -- 66
2019-06-08 09:00:00 7.8 6 Nordeste 11 Norte 0 -- -- 76
2019-06-08 08:00:00 4.3 3 Norte 8 Nordeste 0 -- -- 90
2019-06-08 07:00:00 3.8 3 Noroeste 8 Norte 0 -- -- 89
2019-06-08 06:00:00 3.2 7 Noroeste 9 Noroeste 0 -- -- 91
2019-06-08 05:00:00 3.3 5 Noroeste 7 Noroeste 0 -- -- 88
2019-06-08 04:00:00 4.3 2 Oeste 6 Noroeste 0 -- -- 86
2019-06-08 03:00:00 4 2 Norte 6 Oeste 0 -- -- 83
2019-06-08 02:00:00 5.9 2 Oeste 8 Norte 0 -- -- 76
2019-06-08 01:00:00 6.6 2 Norte 10 Norte 0 -- -- 73
2019-06-08 00:00:00 7.5 3 Norte 10 Norte 0 -- -- 65
2019-06-07 23:00:00 8.9 6 Nordeste 14 Noroeste 0 -- -- 63
2019-06-07 22:00:00 11.3 8 Noroeste 22 Noroeste 0 -- -- 54
2019-06-07 21:00:00 12.7 13 Noroeste 24 Noroeste 0 -- -- 49
2019-06-07 20:00:00 16.5 14 Oeste 31 Oeste 0 -- -- 36
2019-06-07 19:00:00 16.6 13 Oeste 38 Sudoeste 0 -- -- 38
2019-06-07 18:00:00 16.7 21 Sudoeste 36 Sudoeste 0 -- -- 37
2019-06-07 17:00:00 16.7 17 Oeste 39 Sudoeste 0 -- -- 37
2019-06-07 16:00:00 16.1 14 Oeste 38 Oeste 0 -- -- 36
2019-06-07 15:00:00 16.3 19 Oeste 36 Oeste 0 -- -- 34
2019-06-07 14:00:00 15.4 17 Oeste 33 Oeste 0 -- -- 37
2019-06-07 13:00:00 14.2 14 Oeste 27 Sudoeste 0 -- -- 44
2019-06-07 12:00:00 13.4 13 Noroeste 42 Noroeste 0 -- -- 43
2019-06-07 11:00:00 12.1 11 Noroeste 25 Sudoeste 0 -- -- 52
2019-06-07 10:00:00 10 13 Oeste 22 Oeste 0 -- -- 62
2019-06-07 09:00:00 8.5 11 Oeste 18 Oeste 0 -- -- 73
2019-06-07 08:00:00 6.4 4 Noroeste 17 Noroeste 0 -- -- 85
2019-06-07 07:00:00 5.7 10 Oeste 22 Oeste 0 -- -- 85
2019-06-07 06:00:00 5.9 10 Oeste 37 Sudoeste 0 -- -- 83
2019-06-07 05:00:00 6.4 13 Sudoeste 29 Sudoeste 0 -- -- 86
2019-06-07 04:00:00 6.8 15 Oeste 36 Oeste 0 -- -- 85
2019-06-07 03:00:00 6.7 17 Sudoeste 32 Sudoeste 0 -- -- 87
2019-06-07 02:00:00 6.8 19 Sudoeste 29 Sudoeste 0 -- -- 87
2019-06-07 01:00:00 7.3 11 Oeste 33 Sudoeste 0 -- -- 86
2019-06-07 00:00:00 8 18 Sudoeste 37 Oeste 0 -- -- 86
2019-06-06 23:00:00 8.2 16 Sudoeste 28 Sudoeste 0 -- -- 88
2019-06-06 22:00:00 9.3 14 Sudoeste 35 Oeste 0.4 -- -- 82
2019-06-06 21:00:00 10.1 19 Oeste 51 Sudoeste 2.8 -- -- 87
2019-06-06 20:00:00 12.2 21 Sur 33 Sur 1.2 -- -- 87
2019-06-06 19:00:00 12.4 19 Sudoeste 44 Sudoeste 0.6 -- -- 83
2019-06-06 18:00:00 16.7 28 Sudoeste 53 Sudoeste 0 -- -- 51
2019-06-06 17:00:00 16.5 33 Sudoeste 58 Sudoeste 0 -- -- 45
2019-06-06 16:00:00 17.4 33 Sur 56 Sur 0 -- -- 37
2019-06-06 15:00:00 17.3 30 Sur 45 Sudoeste 0 -- -- 35
2019-06-06 14:00:00 15.7 25 Sur 44 Sur 0 -- -- 40
2019-06-06 13:00:00 15.2 22 Sur 41 Sur 0 -- -- 41
2019-06-06 12:00:00 14.3 20 Sur 32 Sur 0 -- -- 44
2019-06-06 11:00:00 11.9 14 Sur 24 Sudoeste 0 -- -- 52
2019-06-06 10:00:00 9.8 3 Este 6 Nordeste 0 -- -- 61
2019-06-06 09:00:00 6.6 3 Este 5 Nordeste 0 -- -- 70
2019-06-06 08:00:00 2.2 0 Calma 5 Oeste 0 -- -- 88
2019-06-06 07:00:00 0.4 3 Noroeste 4 Noroeste 0 -- -- 88
2019-06-06 06:00:00 1 0 Calma 6 Noroeste 0 -- -- 85
2019-06-06 05:00:00 2.2 2 Norte 4 Nordeste 0 -- -- 84
2019-06-06 04:00:00 3.1 4 Noroeste 6 Noroeste 0 -- -- 82
2019-06-06 03:00:00 5 3 Oeste 6 Oeste 0 -- -- 73
2019-06-06 02:00:00 7.4 2 Noroeste 6 Este 0 -- -- 69
2019-06-06 01:00:00 8.9 3 Nordeste 11 Nordeste 0 -- -- 62
2019-06-06 00:00:00 9.8 6 Nordeste 10 Nordeste 0 -- -- 59
2019-06-05 23:00:00 10.4 6 Norte 17 Norte 0 -- -- 58
2019-06-05 22:00:00 12.1 6 Noroeste 24 Oeste 0 -- -- 47
2019-06-05 21:00:00 13.5 13 Oeste 30 Oeste 0 -- -- 40
2019-06-05 20:00:00 13.6 18 Noroeste 36 Noroeste 0 -- -- 42
2019-06-05 19:00:00 15.2 20 Oeste 36 Oeste 0 -- -- 35
2019-06-05 18:00:00 16 21 Oeste 46 Oeste 0 -- -- 34
2019-06-05 17:00:00 15.4 24 Oeste 45 Sudoeste 0 -- -- 38
2019-06-05 16:00:00 16.9 22 Oeste 46 Noroeste 0 -- -- 29
2019-06-05 15:00:00 17.7 18 Oeste 40 Oeste 0 -- -- 29
2019-06-05 14:00:00 15.4 13 Oeste 33 Noroeste 0 -- -- 41
2019-06-05 13:00:00 15.6 18 Noroeste 34 Noroeste 0 -- -- 41
2019-06-05 12:00:00 14.1 14 Oeste 28 Noroeste 0 -- -- 43
2019-06-05 11:00:00 14 18 Noroeste 30 Noroeste 0 -- -- 43
2019-06-05 10:00:00 12.5 16 Noroeste 28 Noroeste 0 -- -- 50
2019-06-05 09:00:00 9.3 2 Noroeste 10 Sudoeste 0 -- -- 66
2019-06-05 08:00:00 6.8 3 Sudoeste 10 Sudoeste 0 -- -- 77
2019-06-05 07:00:00 5.6 5 Sudoeste 11 Sudoeste 0 -- -- 80
2019-06-05 06:00:00 6 0 Calma 9 Norte 0 -- -- 78
2019-06-05 05:00:00 5.7 3 Oeste 8 Norte 0 -- -- 81
2019-06-05 04:00:00 5 0 Calma 9 Sudoeste 0 -- -- 77
2019-06-05 03:00:00 7.2 7 Oeste 11 Sudoeste 0 -- -- 70
2019-06-05 02:00:00 8.1 4 Sudoeste 10 Oeste 0 -- -- 67
2019-06-05 01:00:00 9.2 6 Oeste 20 Noroeste 0 -- -- 65
2019-06-05 00:00:00 10 11 Noroeste 16 Noroeste 0 -- -- 62
2019-06-04 23:00:00 11.7 9 Noroeste 17 Oeste 0 -- -- 54
2019-06-04 22:00:00 14.4 13 Noroeste 28 Oeste 0 -- -- 47
2019-06-04 21:00:00 17.1 17 Oeste 35 Oeste 0 -- -- 36
2019-06-04 20:00:00 18.2 19 Sudoeste 36 Sudoeste 0 -- -- 34
2019-06-04 19:00:00 18.5 18 Oeste 40 Oeste 0 -- -- 42
2019-06-04 18:00:00 19.3 21 Sudoeste 38 Sudoeste 0 -- -- 46
2019-06-04 17:00:00 18.5 23 Oeste 42 Sudoeste 0 -- -- 48
2019-06-04 16:00:00 18.5 22 Sudoeste 42 Oeste 0 -- -- 56
2019-06-04 15:00:00 19.5 25 Sudoeste 45 Sudoeste 0 -- -- 55
2019-06-04 14:00:00 18.6 23 Sudoeste 42 Sudoeste 0 -- -- 56
2019-06-04 13:00:00 19.5 24 Oeste 44 Oeste 0 -- -- 51
2019-06-04 12:00:00 17.8 23 Sudoeste 40 Oeste 0 -- -- 56
2019-06-04 11:00:00 17 20 Oeste 39 Oeste 0 -- -- 60
2019-06-04 10:00:00 15.2 26 Oeste 45 Oeste 0 -- -- 63
2019-06-04 09:00:00 13.6 21 Oeste 43 Oeste 0 -- -- 68
2019-06-04 08:00:00 11.5 7 Oeste 18 Oeste 0 -- -- 75
2019-06-04 07:00:00 10.7 4 Oeste 18 Sudoeste 0 -- -- 77
2019-06-04 06:00:00 11 9 Sudoeste 15 Sudoeste 0 -- -- 79
2019-06-04 05:00:00 12 6 Oeste 20 Sudoeste 0 -- -- 77
2019-06-04 04:00:00 12.9 12 Sudoeste 34 Sudoeste 0 -- -- 77
2019-06-04 03:00:00 13.6 15 Sudoeste 27 Sudoeste 0 -- -- 72
2019-06-04 02:00:00 14.5 14 Sudoeste 23 Sudoeste 0 -- -- 70
2019-06-04 01:00:00 15.6 12 Sudoeste 22 Sudoeste 0 -- -- 65
2019-06-04 00:00:00 17.1 10 Sudoeste 21 Sudoeste 0 -- -- 64
2019-06-03 23:00:00 18.8 10 Sudoeste 24 Sudoeste 0 -- -- 59
2019-06-03 22:00:00 21.1 14 Oeste 30 Oeste 0 -- -- 53
2019-06-03 21:00:00 23.7 15 Oeste 31 Oeste 0 -- -- 47
2019-06-03 20:00:00 25.3 22 Oeste 39 Oeste 0 -- -- 40
2019-06-03 19:00:00 26.5 24 Sudoeste 42 Sudoeste 0 -- -- 34
2019-06-03 18:00:00 26.5 23 Oeste 48 Sudoeste 0 -- -- 34
2019-06-03 17:00:00 27 24 Sudoeste 45 Sudoeste 0 -- -- 34
2019-06-03 16:00:00 27.3 21 Sudoeste 39 Sur 0 -- -- 36
2019-06-03 15:00:00 26.9 19 Sudoeste 35 Sudoeste 0 -- -- 36
2019-06-03 14:00:00 26 18 Sur 47 Sur 0 -- -- 37
2019-06-03 13:00:00 25.4 13 Sudoeste 26 Sudoeste 0 -- -- 37
2019-06-03 12:00:00 23.6 9 Sudoeste 19 Oeste 0 -- -- 38
2019-06-03 11:00:00 21.7 4 Sudoeste 13 Sudeste 0 -- -- 35
2019-06-03 10:00:00 19.7 4 Sudoeste 10 Noroeste 0 -- -- 40
2019-06-03 09:00:00 16 0 Calma 4 Norte 0 -- -- 57
2019-06-03 08:00:00 12.5 0 Calma 8 Oeste 0 -- -- 70
2019-06-03 07:00:00 12.2 3 Sudoeste 9 Noroeste 0 -- -- 67
2019-06-03 06:00:00 12.8 0 Calma 6 Noroeste 0 -- -- 66
2019-06-03 05:00:00 14.1 2 Norte 7 Este 0 -- -- 60
2019-06-03 04:00:00 15.5 3 Sudoeste 6 Oeste 0 -- -- 52
2019-06-03 03:00:00 16.4 5 Noroeste 10 Oeste 0 -- -- 52
2019-06-03 02:00:00 17.3 2 Oeste 5 Sur 0 -- -- 51
2019-06-03 01:00:00 18.2 0 Calma 6 Sudoeste 0 -- -- 41
2019-06-03 00:00:00 19.1 0 Calma 10 Oeste 0 -- -- 38
2019-06-02 23:00:00 21.3 7 Oeste 15 Sudoeste 0 -- -- 31
2019-06-02 22:00:00 22.4 8 Oeste 16 Oeste 0 -- -- 26
2019-06-02 21:00:00 24.1 11 Oeste 25 Oeste 0 -- -- 24
2019-06-02 20:00:00 25.7 14 Oeste 31 Oeste 0 -- -- 21
2019-06-02 19:00:00 26.7 14 Oeste 34 Sudoeste 0 -- -- 21
2019-06-02 18:00:00 27.8 20 Oeste 37 Oeste 0 -- -- 21
2019-06-02 17:00:00 29.3 18 Sudoeste 38 Sudoeste 0 -- -- 19
2019-06-02 16:00:00 29.6 21 Sudoeste 42 Sudoeste 0 -- -- 16
2019-06-02 15:00:00 28.9 19 Oeste 37 Oeste 0 -- -- 16
2019-06-02 14:00:00 28.5 18 Sudoeste 33 Sudoeste 0 -- -- 20
2019-06-02 13:00:00 28 17 Sudoeste 33 Sudoeste 0 -- -- 19
2019-06-02 12:00:00 25.6 9 Oeste 19 Sudoeste 0 -- -- 23
2019-06-02 11:00:00 23.4 8 Sur 15 Sur 0 -- -- 30
2019-06-02 10:00:00 18.7 3 Sudeste 6 Sudeste 0 -- -- 45
2019-06-02 09:00:00 12.9 0 Calma 4 Este 0 -- -- 64
2019-06-02 08:00:00 10.2 0 Calma 2 Sudoeste 0 -- -- 71
2019-06-02 07:00:00 9.2 0 Calma 5 Sur 0 -- -- 73
2019-06-02 06:00:00 10 0 Calma 7 Noroeste 0 -- -- 70
2019-06-02 05:00:00 10.9 3 Noroeste 5 Noroeste 0 -- -- 67
2019-06-02 04:00:00 12.1 0 Calma 5 Noroeste 0 -- -- 61
2019-06-02 03:00:00 14 3 Noroeste 5 Noroeste 0 -- -- 55
2019-06-02 02:00:00 15.8 4 Oeste 7 Sudoeste 0 -- -- 50
2019-06-02 01:00:00 19 2 Oeste 10 Oeste 0 -- -- 42
2019-06-02 00:00:00 21.1 5 Oeste 11 Oeste 0 -- -- 37
2019-06-01 23:00:00 21.3 9 Noroeste 17 Noroeste 0 -- -- 38
2019-06-01 22:00:00 25.3 13 Oeste 22 Sudoeste 0 -- -- 29
2019-06-01 21:00:00 29.1 14 Oeste 28 Sudoeste 0 -- -- 23
2019-06-01 20:00:00 30.3 18 Sudoeste 31 Sudoeste 0 -- -- 22
2019-06-01 19:00:00 31.2 15 Oeste 37 Sudoeste 0 -- -- 20
2019-06-01 18:00:00 31.8 15 Sudoeste 34 Sudoeste 0 -- -- 20
2019-06-01 17:00:00 31.7 14 Oeste 30 Sudoeste 0 -- -- 21
2019-06-01 16:00:00 31.9 13 Oeste 33 Sudoeste 0 -- -- 18
2019-06-01 15:00:00 31.4 15 Sudoeste 32 Oeste 0 -- -- 20
2019-06-01 14:00:00 30.9 17 Sudoeste 31 Oeste 0 -- -- 20
2019-06-01 13:00:00 29.1 5 Oeste 14 Sudoeste 0 -- -- 24
2019-06-01 12:00:00 26.9 3 Oeste 9 Este 0 -- -- 28
2019-06-01 11:00:00 24.5 5 Norte 11 Nordeste 0 -- -- 34
2019-06-01 10:00:00 21.6 3 Nordeste 11 Nordeste 0 -- -- 40
2019-06-01 09:00:00 19 4 Norte 8 Norte 0 -- -- 48
2019-06-01 08:00:00 13.6 5 Oeste 9 Oeste 0 -- -- 62
2019-06-01 07:00:00 11.9 4 Sudoeste 7 Sudoeste 0 -- -- 62
2019-06-01 06:00:00 13.4 4 Sur 5 Sudoeste 0 -- -- 56
2019-06-01 05:00:00 13.8 3 Oeste 9 Noroeste 0 -- -- 54
2019-06-01 04:00:00 14.7 8 Noroeste 10 Noroeste 0 -- -- 51
2019-06-01 03:00:00 15.8 5 Noroeste 11 Noroeste 0 -- -- 45
2019-06-01 02:00:00 14.4 5 Noroeste 14 Noroeste 0 -- -- 46
2019-06-01 01:00:00 14.1 5 Noroeste 7 Noroeste 0 -- -- 46
2019-06-01 00:00:00 15.9 5 Noroeste 12 Oeste 0 -- -- 44
2019-05-31 23:00:00 18.4 6 Noroeste 8 Noroeste 0 -- -- 36
2019-05-31 22:00:00 24.5 5 Sur 12 Este 0 -- -- 22
2019-05-31 21:00:00 28.8 9 Sudeste 19 Este 0 -- -- 13
2019-05-31 20:00:00 30.6 10 Este 21 Este 0 -- -- 13
2019-05-31 19:00:00 31.2 6 Sur 20 Sur 0 -- -- 14
2019-05-31 18:00:00 30.9 8 Nordeste 18 Este 0 -- -- 16
2019-05-31 17:00:00 30.8 9 Sudoeste 17 Sudoeste 0 -- -- 17
2019-05-31 16:00:00 30.1 9 Sur 21 Este 0 -- -- 19
2019-05-31 15:00:00 29 7 Nordeste 17 Este 0 -- -- 22
2019-05-31 14:00:00 27.9 6 Oeste 20 Este 0 -- -- 24
2019-05-31 13:00:00 27.2 5 Sur 16 Nordeste 0 -- -- 28
2019-05-31 12:00:00 25.4 5 Nordeste 14 Sudeste 0 -- -- 31
2019-05-31 11:00:00 23.5 6 Este 12 Este 0 -- -- 38
2019-05-31 10:00:00 21 5 Norte 12 Norte 0 -- -- 46
2019-05-31 09:00:00 17.6 2 Este 5 Nordeste 0 -- -- 59
2019-05-31 08:00:00 12.9 2 Noroeste 7 Noroeste 0 -- -- 75
2019-05-31 07:00:00 11.3 3 Oeste 6 Noroeste 0 -- -- 77
2019-05-31 06:00:00 11.5 5 Noroeste 11 Noroeste 0 -- -- 77
2019-05-31 05:00:00 12.9 4 Noroeste 7 Noroeste 0 -- -- 71
2019-05-31 04:00:00 14.1 2 Noroeste 8 Norte 0 -- -- 67
2019-05-31 03:00:00 16 3 Noroeste 11 Noroeste 0 -- -- 61
2019-05-31 02:00:00 16.3 6 Norte 10 Norte 0 -- -- 56
2019-05-31 01:00:00 18.4 3 Norte 7 Nordeste 0 -- -- 45
2019-05-31 00:00:00 18.4 5 Nordeste 10 Noroeste 0 -- -- 44
2019-05-30 23:00:00 20 5 Noroeste 6 Noroeste 0 -- -- 43
2019-05-30 22:00:00 24.4 4 Este 16 Este 0 -- -- 31
2019-05-30 21:00:00 27.3 13 Este 21 Este 0 -- -- 26
2019-05-30 20:00:00 28.2 15 Nordeste 28 Este 0 -- -- 26
2019-05-30 19:00:00 28.8 10 Nordeste 29 Nordeste 0 -- -- 26
2019-05-30 18:00:00 28.7 12 Nordeste 30 Nordeste 0 -- -- 24
2019-05-30 17:00:00 28.7 10 Este 27 Sudeste 0 -- -- 24
2019-05-30 16:00:00 27.8 5 Este 19 Este 0 -- -- 26
2019-05-30 15:00:00 27.2 10 Sudeste 22 Sudeste 0 -- -- 25
2019-05-30 14:00:00 24.8 6 Este 17 Sudeste 0 -- -- 32
2019-05-30 13:00:00 23.2 6 Sur 15 Sur 0 -- -- 35
2019-05-30 12:00:00 20.7 5 Sudoeste 13 Este 0 -- -- 42
2019-05-30 11:00:00 19.1 4 Nordeste 13 Este 0 -- -- 46
2019-05-30 10:00:00 17.1 4 Sudeste 10 Este 0 -- -- 51
2019-05-30 09:00:00 13.4 0 Calma 4 Noroeste 0 -- -- 68
2019-05-30 08:00:00 8.4 0 Calma 8 Noroeste 0 -- -- 82
2019-05-30 07:00:00 5.9 5 Noroeste 9 Noroeste 0 -- -- 85
2019-05-30 06:00:00 6.7 0 Calma 4 Noroeste 0 -- -- 83
2019-05-30 05:00:00 8 0 Calma 5 Noroeste 0 -- -- 78
2019-05-30 04:00:00 8.5 5 Norte 12 Noroeste 0 -- -- 77
2019-05-30 03:00:00 9.7 7 Noroeste 10 Oeste 0 -- -- 72
2019-05-30 02:00:00 11.2 4 Noroeste 8 Noroeste 0 -- -- 66
2019-05-30 01:00:00 15 0 Calma 10 Este 0 -- -- 53
2019-05-30 00:00:00 16.3 5 Este 15 Este 0 -- -- 50
2019-05-29 23:00:00 17.8 10 Este 26 Este 0 -- -- 48
2019-05-29 22:00:00 21 5 Este 11 Este 0 -- -- 38
2019-05-29 21:00:00 23.6 9 Este 20 Este 0 -- -- 33
2019-05-29 20:00:00 24.7 11 Este 19 Nordeste 0 -- -- 30
2019-05-29 19:00:00 24.9 10 Nordeste 26 Sudeste 0 -- -- 30
2019-05-29 18:00:00 24.6 9 Este 32 Este 0 -- -- 31
2019-05-29 17:00:00 23.7 12 Nordeste 27 Este 0 -- -- 34
2019-05-29 16:00:00 23.1 14 Nordeste 32 Nordeste 0 -- -- 32
2019-05-29 15:00:00 22 8 Nordeste 31 Este 0 -- -- 35
2019-05-29 14:00:00 20.5 9 Este 21 Este 0 -- -- 37
2019-05-29 13:00:00 18.8 6 Sudeste 17 Sudeste 0 -- -- 40
2019-05-29 12:00:00 16.4 5 Norte 16 Sudeste 0 -- -- 46
2019-05-29 11:00:00 14.4 7 Este 15 Este 0 -- -- 51
2019-05-29 10:00:00 12.5 5 Este 11 Sudeste 0 -- -- 56
2019-05-29 09:00:00 9.6 2 Sur 5 Sur 0 -- -- 69
2019-05-29 08:00:00 5.5 0 Calma 4 Noroeste 0 -- -- 83
2019-05-29 07:00:00 3 3 Noroeste 6 Noroeste 0 -- -- 85
2019-05-29 06:00:00 4 4 Noroeste 5 Noroeste 0 -- -- 82
2019-05-29 05:00:00 5.8 3 Noroeste 4 Norte 0 -- -- 74
2019-05-29 04:00:00 7.6 0 Calma 5 Norte 0 -- -- 70
2019-05-29 03:00:00 8.4 3 Nordeste 11 Nordeste 0 -- -- 67
2019-05-29 02:00:00 9.9 5 Nordeste 9 Este 0 -- -- 62
2019-05-29 01:00:00 11.1 7 Nordeste 19 Norte 0 -- -- 58
2019-05-29 00:00:00 12.1 8 Nordeste 25 Norte 0 -- -- 53
2019-05-28 23:00:00 13.7 19 Norte 34 Norte 0 -- -- 47
2019-05-28 22:00:00 15.2 15 Nordeste 36 Nordeste 0 -- -- 41
2019-05-28 21:00:00 17.8 22 Nordeste 43 Nordeste 0 -- -- 36
2019-05-28 20:00:00 19.8 27 Nordeste 44 Nordeste 0 -- -- 32
2019-05-28 19:00:00 21 27 Nordeste 44 Nordeste 0 -- -- 31
2019-05-28 18:00:00 22.5 22 Nordeste 40 Este 0 -- -- 29
2019-05-28 17:00:00 23.8 20 Nordeste 33 Norte 0 -- -- 27
2019-05-28 16:00:00 23.6 15 Norte 34 Nordeste 0 -- -- 26
2019-05-28 15:00:00 21.9 10 Norte 26 Nordeste 0 -- -- 28
2019-05-28 14:00:00 20.7 12 Nordeste 28 Nordeste 0 -- -- 28
2019-05-28 13:00:00 18.6 13 Nordeste 23 Nordeste 0 -- -- 32
2019-05-28 12:00:00 16.9 8 Nordeste 18 Nordeste 0 -- -- 41
2019-05-28 11:00:00 14.6 4 Norte 14 Este 0 -- -- 52
2019-05-28 10:00:00 12.5 5 Sudeste 10 Sudeste 0 -- -- 59
2019-05-28 09:00:00 10 2 Nordeste 6 Nordeste 0 -- -- 71
2019-05-28 08:00:00 4.6 3 Noroeste 7 Noroeste 0 -- -- 87
2019-05-28 07:00:00 3 5 Noroeste 8 Noroeste 0 -- -- 84
2019-05-28 06:00:00 3.9 4 Noroeste 7 Noroeste 0 -- -- 81
2019-05-28 05:00:00 5 3 Noroeste 8 Noroeste 0 -- -- 77
2019-05-28 04:00:00 6.8 3 Noroeste 6 Sur 0 -- -- 70
2019-05-28 03:00:00 9.5 0 Calma 9 Este 0 -- -- 58
2019-05-28 02:00:00 10.7 5 Norte 17 Nordeste 0 -- -- 54
2019-05-28 01:00:00 12.6 10 Nordeste 24 Nordeste 0 -- -- 48
2019-05-28 00:00:00 13.4 8 Nordeste 22 Este 0 -- -- 50